createdAt,value
2019-03-29T00:01:49.255Z,20.68
2019-03-29T00:04:19.788Z,21.23
2019-03-29T00:06:48.556Z,19.62
2019-03-29T00:09:17.002Z,18.12
2019-03-29T00:11:47.101Z,19.07
2019-03-29T00:14:15.933Z,21.52
2019-03-29T00:16:44.927Z,19.67
2019-03-29T00:19:13.466Z,18.25
2019-03-29T00:21:41.907Z,14.63
2019-03-29T00:24:10.354Z,18.37
2019-03-29T00:26:39.170Z,16.37
2019-03-29T00:29:07.934Z,16.65
2019-03-29T00:31:36.404Z,16.02
2019-03-29T00:34:05.297Z,16.48
2019-03-29T00:36:34.131Z,14.00
2019-03-29T00:39:02.594Z,16.50
2019-03-29T00:41:32.693Z,17.27
2019-03-29T00:44:01.495Z,15.05
2019-03-29T00:46:31.925Z,15.10
2019-03-29T00:49:00.709Z,14.47
2019-03-29T00:51:29.197Z,15.93
2019-03-29T00:53:57.641Z,15.23
2019-03-29T00:56:26.355Z,16.50
2019-03-29T00:58:56.361Z,16.17
2019-03-29T01:01:26.041Z,17.12
2019-03-29T01:03:56.843Z,17.73
2019-03-29T01:06:25.308Z,18.20
2019-03-29T01:08:53.923Z,18.12
2019-03-29T01:11:22.745Z,17.57
2019-03-29T01:13:51.226Z,17.32
2019-03-29T01:16:19.675Z,19.98
2019-03-29T01:18:49.206Z,20.57
2019-03-29T01:21:17.946Z,20.25
2019-03-29T01:23:46.396Z,19.07
2019-03-29T01:26:16.288Z,19.85
2019-03-29T01:28:46.318Z,19.62
2019-03-29T01:31:15.147Z,19.48
2019-03-29T01:33:43.650Z,17.32
2019-03-29T01:36:12.436Z,20.85
2019-03-29T01:38:41.236Z,17.67
2019-03-29T01:41:09.709Z,17.42
2019-03-29T01:43:38.542Z,20.62
2019-03-29T01:46:07.189Z,18.80
2019-03-29T01:48:35.932Z,20.20
2019-03-29T01:51:04.480Z,19.67
2019-03-29T01:53:34.896Z,20.82
2019-03-29T01:56:03.762Z,19.17
2019-03-29T01:58:32.478Z,17.75
2019-03-29T02:01:01.330Z,18.80
2019-03-29T02:03:29.922Z,19.87
2019-03-29T02:05:58.662Z,19.67
2019-03-29T02:08:35.617Z,20.23
2019-03-29T02:10:57.902Z,17.48
2019-03-29T02:13:26.750Z,17.42
2019-03-29T02:15:55.476Z,16.50
2019-03-29T02:18:24.301Z,14.83
2019-03-29T02:20:53.102Z,17.62
2019-03-29T02:23:21.556Z,17.67
2019-03-29T02:25:50.046Z,16.45
2019-03-29T02:28:19.029Z,16.60
2019-03-29T02:30:48.152Z,16.50
2019-03-29T02:33:17.041Z,16.80
2019-03-29T02:35:45.801Z,16.90
2019-03-29T02:38:14.268Z,13.83
2019-03-29T02:40:43.104Z,14.47
2019-03-29T02:43:11.655Z,14.68
2019-03-29T02:45:40.437Z,16.10
2019-03-29T02:48:09.046Z,16.10
2019-03-29T02:50:38.279Z,14.70
2019-03-29T02:53:07.273Z,16.17
2019-03-29T02:55:35.945Z,13.63
2019-03-29T02:58:04.821Z,14.80
2019-03-29T03:00:33.619Z,15.77
2019-03-29T03:03:02.381Z,13.07
2019-03-29T03:05:32.714Z,14.07
2019-03-29T03:08:01.486Z,14.57
2019-03-29T03:10:30.275Z,15.33
2019-03-29T03:13:00.137Z,13.63
2019-03-29T03:15:28.938Z,15.43
2019-03-29T03:17:57.676Z,15.53
2019-03-29T03:20:26.554Z,15.90
2019-03-29T03:22:55.054Z,15.53
2019-03-29T03:25:23.822Z,14.97
2019-03-29T03:27:52.614Z,14.40
2019-03-29T03:30:21.488Z,15.83
2019-03-29T03:32:50.503Z,15.55
2019-03-29T03:35:22.141Z,14.77
2019-03-29T03:37:50.934Z,14.50
2019-03-29T03:40:20.333Z,14.17
2019-03-29T03:42:48.786Z,15.13
2019-03-29T03:45:17.322Z,16.20
2019-03-29T03:47:46.132Z,17.90
2019-03-29T03:50:40.602Z,15.40
2019-03-29T03:53:10.353Z,17.60
2019-03-29T03:55:40.819Z,18.47
2019-03-29T03:58:11.018Z,16.80
2019-03-29T04:00:53.549Z,15.97
2019-03-29T04:03:23.403Z,18.07
2019-03-29T04:05:52.350Z,19.73
2019-03-29T04:08:21.540Z,17.25
2019-03-29T04:10:50.037Z,18.33
2019-03-29T04:13:18.564Z,17.47
2019-03-29T04:15:48.809Z,18.37
2019-03-29T04:18:17.603Z,17.87
2019-03-29T04:20:46.395Z,18.23
2019-03-29T04:23:14.877Z,18.37
2019-03-29T04:25:43.606Z,18.67
2019-03-29T04:28:13.641Z,17.60
2019-03-29T04:30:42.549Z,16.70
2019-03-29T04:33:11.575Z,17.70
2019-03-29T04:35:40.100Z,14.90
2019-03-29T04:38:08.593Z,15.70
2019-03-29T04:40:37.443Z,15.93
2019-03-29T04:43:06.172Z,15.67
2019-03-29T04:45:34.651Z,15.37
2019-03-29T04:48:03.220Z,14.60
2019-03-29T04:50:32.037Z,14.50
2019-03-29T04:53:01.219Z,15.17
2019-03-29T04:55:30.026Z,14.63
2019-03-29T04:57:58.478Z,13.03
2019-03-29T05:00:27.386Z,14.73
2019-03-29T05:02:56.182Z,14.70
2019-03-29T05:05:24.962Z,14.97
2019-03-29T05:07:55.236Z,16.23
2019-03-29T05:10:23.684Z,14.50
2019-03-29T05:12:52.165Z,15.57
2019-03-29T05:15:21.044Z,16.83
2019-03-29T05:17:49.825Z,14.73
2019-03-29T05:20:18.537Z,14.95
2019-03-29T05:22:47.401Z,14.93
2019-03-29T05:25:16.211Z,15.27
2019-03-29T05:27:44.988Z,14.97
2019-03-29T05:30:13.744Z,14.83
2019-03-29T05:32:42.536Z,16.33
2019-03-29T05:35:11.051Z,15.43
2019-03-29T05:37:39.790Z,17.80
2019-03-29T05:40:08.682Z,14.03
2019-03-29T05:42:37.126Z,15.83
2019-03-29T05:45:07.598Z,18.20
2019-03-29T05:47:36.108Z,17.70
2019-03-29T05:50:06.625Z,19.40
2019-03-29T05:52:37.006Z,17.77
2019-03-29T05:55:07.450Z,16.13
2019-03-29T05:57:37.265Z,20.15
2019-03-29T06:00:10.778Z,20.00
2019-03-29T06:02:39.568Z,17.37
2019-03-29T06:05:08.164Z,19.55
2019-03-29T06:07:36.634Z,20.10
2019-03-29T06:10:07.161Z,22.60
2019-03-29T06:12:35.682Z,20.97
2019-03-29T06:15:04.994Z,17.52
2019-03-29T06:17:33.446Z,22.77
2019-03-29T06:20:03.247Z,25.35
2019-03-29T06:22:31.962Z,22.67
2019-03-29T06:25:00.400Z,23.25
2019-03-29T06:27:29.144Z,21.62
2019-03-29T06:29:57.978Z,20.92
2019-03-29T06:32:26.426Z,21.80
2019-03-29T06:34:55.210Z,20.12
2019-03-29T06:37:24.307Z,22.00
2019-03-29T06:39:53.898Z,23.55
2019-03-29T06:42:22.713Z,20.55
2019-03-29T06:44:51.582Z,21.15
2019-03-29T06:47:20.042Z,19.23
2019-03-29T06:49:48.770Z,22.95
2019-03-29T06:52:17.539Z,22.07
2019-03-29T06:54:50.416Z,21.68
2019-03-29T06:57:19.214Z,20.45
2019-03-29T06:59:48.013Z,23.47
2019-03-29T07:02:22.755Z,24.98
2019-03-29T07:04:52.047Z,24.30
2019-03-29T07:07:23.778Z,26.87
2019-03-29T07:09:52.020Z,30.25
2019-03-29T07:12:20.860Z,30.55
2019-03-29T07:14:49.319Z,28.32
2019-03-29T07:17:18.105Z,29.40
2019-03-29T07:19:46.908Z,30.20
2019-03-29T07:22:15.477Z,30.75
2019-03-29T07:24:48.268Z,30.57
2019-03-29T07:27:21.232Z,30.08
2019-03-29T07:29:51.145Z,33.02
2019-03-29T07:32:20.861Z,31.37
2019-03-29T07:34:49.441Z,32.28
2019-03-29T07:37:18.002Z,32.15
2019-03-29T07:39:46.818Z,30.27
2019-03-29T07:42:15.402Z,34.30
2019-03-29T07:44:46.439Z,106.60
2019-03-29T07:47:17.925Z,34.78
2019-03-29T07:49:46.464Z,35.83
2019-03-29T07:52:19.320Z,35.33
2019-03-29T07:54:48.169Z,34.03
2019-03-29T07:57:16.954Z,31.95
2019-03-29T07:59:45.418Z,34.25
2019-03-29T08:02:15.223Z,34.50
2019-03-29T08:04:46.365Z,36.88
2019-03-29T08:07:26.575Z,39.80
2019-03-29T08:09:45.071Z,40.50
2019-03-29T08:12:22.045Z,38.02
2019-03-29T08:17:41.269Z,42.53
2019-03-29T08:20:38.877Z,41.37
2019-03-29T08:22:42.169Z,41.15
2019-03-29T08:25:10.811Z,42.40
2019-03-29T08:27:40.064Z,40.43
2019-03-29T08:30:08.658Z,40.40
2019-03-29T08:32:37.301Z,40.33
2019-03-29T08:35:07.059Z,40.78
2019-03-29T08:37:36.043Z,40.23
2019-03-29T08:40:05.737Z,40.08
2019-03-29T08:42:34.254Z,43.92
2019-03-29T08:45:11.824Z,38.53
2019-03-29T08:47:40.618Z,39.95
2019-03-29T08:50:09.407Z,41.80
2019-03-29T08:52:37.969Z,38.35
2019-03-29T08:55:07.060Z,39.60
2019-03-29T08:57:35.799Z,40.73
2019-03-29T09:00:06.702Z,39.25
2019-03-29T09:02:35.263Z,39.42
2019-03-29T09:05:04.829Z,39.18
2019-03-29T09:07:44.420Z,37.85
2019-03-29T09:10:09.742Z,36.93
2019-03-29T09:12:38.531Z,37.53
2019-03-29T09:15:07.495Z,35.63
2019-03-29T09:17:36.289Z,36.13
2019-03-29T09:20:05.660Z,30.80
2019-03-29T09:22:34.472Z,30.10
2019-03-29T09:25:03.117Z,32.42
2019-03-29T09:27:32.298Z,29.98
2019-03-29T09:30:05.127Z,30.82
2019-03-29T09:32:33.347Z,30.68
2019-03-29T09:35:02.125Z,31.40
2019-03-29T09:37:31.117Z,31.17
2019-03-29T09:39:59.864Z,28.12
2019-03-29T09:42:30.066Z,27.62
2019-03-29T09:44:58.536Z,27.60
2019-03-29T09:47:27.381Z,26.10
2019-03-29T09:49:56.127Z,26.87
2019-03-29T09:52:24.946Z,25.80
2019-03-29T09:54:54.113Z,26.62
2019-03-29T09:57:36.069Z,26.27
2019-03-29T09:59:53.234Z,25.57
2019-03-29T10:02:22.226Z,26.00
2019-03-29T10:04:51.046Z,26.40
2019-03-29T10:07:19.921Z,26.42
2019-03-29T10:09:48.692Z,24.25
2019-03-29T10:12:17.427Z,22.20
2019-03-29T10:14:45.878Z,21.80
2019-03-29T10:17:14.374Z,22.02
2019-03-29T10:19:45.708Z,22.65
2019-03-29T10:22:14.470Z,22.17
2019-03-29T10:24:43.213Z,19.70
2019-03-29T10:27:11.958Z,19.20
2019-03-29T10:29:43.599Z,18.85
2019-03-29T10:32:12.490Z,18.98
2019-03-29T10:34:41.205Z,20.27
2019-03-29T10:37:12.560Z,18.80
2019-03-29T10:39:42.909Z,19.15
2019-03-29T10:42:14.160Z,18.57
2019-03-29T10:44:44.398Z,20.15
2019-03-29T10:47:13.334Z,18.00
2019-03-29T10:49:42.716Z,15.60
2019-03-29T10:52:13.146Z,17.00
2019-03-29T10:54:41.880Z,16.37
2019-03-29T10:57:10.697Z,16.37
2019-03-29T10:59:39.516Z,16.70
2019-03-29T11:02:08.273Z,13.98
2019-03-29T11:04:38.634Z,13.72
2019-03-29T11:07:07.162Z,12.33
2019-03-29T11:09:37.160Z,11.97
2019-03-29T11:12:05.860Z,11.10
2019-03-29T11:14:34.332Z,9.65
2019-03-29T11:17:03.250Z,10.08
2019-03-29T11:19:32.044Z,12.53
2019-03-29T11:22:01.920Z,11.95
2019-03-29T11:24:30.762Z,13.62
2019-03-29T11:26:59.696Z,12.93
2019-03-29T11:29:29.576Z,11.78
2019-03-29T11:31:58.033Z,10.88
2019-03-29T11:34:27.735Z,11.33
2019-03-29T11:36:56.217Z,12.15
2019-03-29T11:39:27.339Z,12.63
2019-03-29T11:41:55.151Z,13.85
2019-03-29T11:44:23.935Z,11.80
2019-03-29T11:46:52.793Z,7.05
2019-03-29T11:49:21.583Z,8.70
2019-03-29T11:51:50.062Z,10.50
2019-03-29T11:54:18.852Z,11.83
2019-03-29T11:56:47.882Z,11.68
2019-03-29T11:59:16.720Z,11.70
2019-03-29T12:01:45.558Z,11.57
2019-03-29T12:04:14.013Z,11.25
2019-03-29T12:06:42.506Z,11.33
2019-03-29T12:09:10.967Z,12.18
2019-03-29T12:11:40.229Z,10.98
2019-03-29T12:14:09.041Z,9.98
2019-03-29T12:16:37.570Z,11.00
2019-03-29T12:19:06.404Z,10.15
2019-03-29T12:21:35.229Z,11.35
2019-03-29T12:24:04.894Z,10.60
2019-03-29T12:26:33.654Z,11.78
2019-03-29T12:29:04.457Z,11.15
2019-03-29T12:31:34.621Z,11.50
2019-03-29T12:34:03.377Z,11.75
2019-03-29T12:36:32.143Z,11.83
2019-03-29T12:39:03.198Z,11.40
2019-03-29T12:41:34.253Z,11.48
2019-03-29T12:44:03.002Z,13.58
2019-03-29T12:46:32.440Z,13.03
2019-03-29T12:49:01.190Z,12.82
2019-03-29T12:51:29.998Z,14.80
2019-03-29T12:53:58.593Z,13.20
2019-03-29T12:56:28.173Z,14.73
2019-03-29T12:58:57.138Z,14.95
2019-03-29T13:01:38.603Z,14.68
2019-03-29T13:03:56.505Z,14.55
2019-03-29T13:06:25.443Z,14.00
2019-03-29T13:08:54.195Z,14.33
2019-03-29T13:11:23.128Z,14.43
2019-03-29T13:13:51.717Z,14.43
2019-03-29T13:16:20.198Z,15.68
2019-03-29T13:18:53.485Z,15.38
2019-03-29T13:21:20.679Z,15.78
2019-03-29T13:23:49.177Z,16.27
2019-03-29T13:26:17.815Z,16.55
2019-03-29T13:28:46.783Z,15.48
2019-03-29T13:31:15.323Z,16.05
2019-03-29T13:33:44.183Z,15.60
2019-03-29T13:36:13.064Z,15.93
2019-03-29T13:38:41.561Z,14.03
2019-03-29T13:41:11.824Z,12.88
2019-03-29T13:43:40.671Z,13.05
2019-03-29T13:46:09.409Z,13.68
2019-03-29T13:48:38.235Z,14.78
2019-03-29T13:51:07.003Z,14.15
2019-03-29T13:53:35.536Z,14.35
2019-03-29T13:56:04.421Z,14.70
2019-03-29T13:58:32.883Z,12.28
2019-03-29T14:01:01.329Z,11.95
2019-03-29T14:03:34.563Z,13.25
2019-03-29T14:06:03.043Z,12.70
2019-03-29T14:08:31.835Z,14.78
2019-03-29T14:11:00.587Z,12.40
2019-03-29T14:13:30.687Z,13.38
2019-03-29T14:15:59.209Z,13.40
2019-03-29T14:18:28.073Z,13.03
2019-03-29T14:20:58.194Z,13.48
2019-03-29T14:23:26.919Z,12.40
2019-03-29T14:25:56.699Z,13.53
2019-03-29T14:28:25.553Z,12.95
2019-03-29T14:30:54.347Z,13.95
2019-03-29T14:33:24.674Z,13.60
2019-03-29T14:35:53.430Z,14.20
2019-03-29T14:38:23.074Z,13.32
2019-03-29T14:40:51.530Z,13.95
2019-03-29T14:43:20.335Z,12.73
2019-03-29T14:45:48.846Z,13.45
2019-03-29T14:48:17.345Z,12.95
2019-03-29T14:50:49.959Z,12.07
2019-03-29T14:53:21.784Z,11.85
2019-03-29T14:55:52.899Z,11.78
2019-03-29T14:58:23.717Z,11.75
2019-03-29T15:00:52.597Z,10.68
2019-03-29T15:03:28.367Z,10.38
2019-03-29T15:06:01.567Z,9.25
2019-03-29T15:08:29.379Z,9.68
2019-03-29T15:10:58.205Z,9.75
2019-03-29T15:13:26.703Z,8.65
2019-03-29T15:15:55.462Z,10.63
2019-03-29T15:18:23.969Z,10.30
2019-03-29T15:20:54.227Z,10.03
2019-03-29T15:23:23.366Z,11.15
2019-03-29T15:25:52.198Z,10.28
2019-03-29T15:28:22.360Z,10.85
2019-03-29T15:30:52.535Z,10.93
2019-03-29T15:33:27.196Z,9.80
2019-03-29T15:35:57.583Z,9.83
2019-03-29T15:38:26.352Z,10.53
2019-03-29T15:40:55.311Z,11.38
2019-03-29T15:43:23.858Z,9.93
2019-03-29T15:45:52.700Z,9.45
2019-03-29T15:48:23.024Z,9.88
2019-03-29T15:50:51.516Z,10.25
2019-03-29T15:53:20.248Z,10.03
2019-03-29T15:55:49.050Z,9.28
2019-03-29T15:58:17.792Z,8.45
2019-03-29T16:00:46.558Z,8.20
2019-03-29T16:03:15.129Z,8.88
2019-03-29T16:05:43.657Z,9.43
2019-03-29T16:08:14.120Z,9.15
2019-03-29T16:10:42.598Z,9.13
2019-03-29T16:13:13.005Z,8.75
2019-03-29T16:15:41.518Z,8.63
2019-03-29T16:18:09.993Z,9.30
2019-03-29T16:20:40.518Z,8.23
2019-03-29T16:23:09.038Z,8.78
2019-03-29T16:25:38.616Z,9.00
2019-03-29T16:28:07.405Z,9.05
2019-03-29T16:30:35.870Z,8.33
2019-03-29T16:33:08.055Z,8.90
2019-03-29T16:35:38.481Z,8.28
2019-03-29T16:38:07.339Z,8.15
2019-03-29T16:40:36.053Z,8.63
2019-03-29T16:43:04.558Z,8.45
2019-03-29T16:45:33.007Z,8.10
2019-03-29T16:48:01.565Z,8.63
2019-03-29T16:50:32.889Z,9.25
2019-03-29T16:53:03.086Z,8.43
2019-03-29T16:55:31.642Z,7.90
2019-03-29T16:58:00.190Z,7.90
2019-03-29T17:00:29.000Z,6.92
2019-03-29T17:02:57.911Z,8.03
2019-03-29T17:05:26.382Z,7.47
2019-03-29T17:07:55.160Z,7.08
2019-03-29T17:10:24.057Z,7.28
2019-03-29T17:12:52.587Z,7.15
2019-03-29T17:15:23.769Z,6.83
2019-03-29T17:17:52.337Z,8.05
2019-03-29T17:20:21.034Z,7.08
2019-03-29T17:22:49.548Z,6.42
2019-03-29T17:25:19.635Z,6.90
2019-03-29T17:27:52.032Z,7.78
2019-03-29T17:30:22.457Z,7.62
2019-03-29T17:32:51.046Z,7.90
2019-03-29T17:35:23.313Z,7.75
2019-03-29T17:37:53.682Z,8.03
2019-03-29T17:40:22.519Z,7.50
2019-03-29T17:42:54.743Z,8.23
2019-03-29T17:45:23.570Z,7.35
2019-03-29T17:47:53.689Z,7.65
2019-03-29T17:50:25.334Z,9.68
2019-03-29T17:52:54.359Z,9.30
2019-03-29T17:55:23.313Z,8.65
2019-03-29T17:57:52.432Z,9.90
2019-03-29T18:00:23.045Z,8.28
2019-03-29T18:02:52.590Z,8.93
2019-03-29T18:05:22.933Z,9.00
2019-03-29T18:07:51.455Z,8.80
2019-03-29T18:10:20.226Z,9.23
2019-03-29T18:12:48.950Z,10.20
2019-03-29T18:15:17.966Z,9.90
2019-03-29T18:17:47.340Z,10.08
2019-03-29T18:20:16.717Z,9.70
2019-03-29T18:22:45.235Z,9.85
2019-03-29T18:25:15.630Z,10.80
2019-03-29T18:27:44.154Z,11.05
2019-03-29T18:30:13.927Z,11.43
2019-03-29T18:32:42.763Z,11.12
2019-03-29T18:35:11.709Z,10.05
2019-03-29T18:37:40.497Z,10.40
2019-03-29T18:40:21.141Z,9.50
2019-03-29T18:42:49.664Z,10.72
2019-03-29T18:45:18.118Z,11.55
2019-03-29T18:47:47.098Z,12.85
2019-03-29T18:50:15.741Z,13.88
2019-03-29T18:52:44.272Z,12.03
2019-03-29T18:55:17.921Z,13.55
2019-03-29T18:57:46.638Z,11.75
2019-03-29T19:00:18.222Z,12.30
2019-03-29T19:02:47.102Z,12.98
2019-03-29T19:05:24.804Z,13.70
2019-03-29T19:07:53.287Z,11.60
2019-03-29T19:10:21.738Z,13.48
2019-03-29T19:12:50.201Z,14.38
2019-03-29T19:15:18.923Z,15.65
2019-03-29T19:17:47.637Z,14.05
2019-03-29T19:20:26.741Z,15.43
2019-03-29T19:22:46.296Z,14.33
2019-03-29T19:25:15.090Z,13.03
2019-03-29T19:27:43.901Z,14.18
2019-03-29T19:30:12.964Z,14.60
2019-03-29T19:32:41.474Z,11.60
2019-03-29T19:35:10.423Z,13.90
2019-03-29T19:37:40.443Z,14.23
2019-03-29T19:40:08.966Z,13.98
2019-03-29T19:42:37.744Z,14.18
2019-03-29T19:45:08.228Z,15.40
2019-03-29T19:47:36.675Z,16.30
2019-03-29T19:50:08.906Z,15.93
2019-03-29T19:52:37.418Z,17.35
2019-03-29T19:55:07.121Z,15.88
2019-03-29T19:57:35.971Z,16.42
2019-03-29T20:00:10.162Z,13.75
2019-03-29T20:02:38.902Z,14.58
2019-03-29T20:05:10.768Z,17.17
2019-03-29T20:07:39.482Z,16.07
2019-03-29T20:10:08.627Z,15.13
2019-03-29T20:12:37.462Z,17.20
2019-03-29T20:15:07.360Z,15.40
2019-03-29T20:17:37.010Z,13.90
2019-03-29T20:20:09.472Z,15.93
2019-03-29T20:22:38.294Z,17.98
2019-03-29T20:25:07.123Z,17.07
2019-03-29T20:27:35.912Z,16.90
2019-03-29T20:30:06.806Z,16.17
2019-03-29T20:32:37.229Z,13.90
2019-03-29T20:35:06.757Z,15.93
2019-03-29T20:37:35.490Z,14.93
2019-03-29T20:40:07.019Z,14.55
2019-03-29T20:42:35.753Z,14.13
2019-03-29T20:45:06.566Z,16.77
2019-03-29T20:47:42.005Z,17.27
2019-03-29T20:50:08.943Z,15.75
2019-03-29T20:52:37.410Z,15.95
2019-03-29T20:55:07.657Z,17.62
2019-03-29T20:57:36.283Z,17.15
2019-03-29T21:00:06.980Z,16.87
2019-03-29T21:02:35.482Z,16.37
2019-03-29T21:05:08.584Z,15.13
2019-03-29T21:07:37.368Z,17.48
2019-03-29T21:10:08.002Z,17.45
2019-03-29T21:12:36.550Z,15.90
2019-03-29T21:15:06.719Z,17.80
2019-03-29T21:17:35.755Z,14.73
2019-03-29T21:20:09.066Z,16.00
2019-03-29T21:22:37.690Z,16.15
2019-03-29T21:25:09.199Z,16.95
2019-03-29T21:27:38.292Z,17.90
2019-03-29T21:30:09.851Z,17.55
2019-03-29T21:32:38.565Z,16.55
2019-03-29T21:35:07.575Z,19.35
2019-03-29T21:37:36.797Z,14.78
2019-03-29T21:40:09.820Z,16.48
2019-03-29T21:42:38.679Z,19.00
2019-03-29T21:45:08.929Z,18.25
2019-03-29T21:47:37.674Z,19.27
2019-03-29T21:50:08.583Z,18.73
2019-03-29T21:52:37.215Z,18.27
2019-03-29T21:55:06.665Z,16.57
2019-03-29T21:57:35.124Z,16.35
2019-03-29T22:00:09.227Z,15.55
2019-03-29T22:02:37.722Z,16.42
2019-03-29T22:05:10.149Z,17.40
2019-03-29T22:07:37.155Z,16.90
2019-03-29T22:10:09.349Z,18.02
2019-03-29T22:12:38.287Z,19.55
2019-03-29T22:15:09.423Z,16.65
2019-03-29T22:17:38.594Z,16.10
2019-03-29T22:20:08.741Z,16.45
2019-03-29T22:22:37.564Z,15.83
2019-03-29T22:25:09.657Z,19.25
2019-03-29T22:27:38.228Z,15.18
2019-03-29T22:30:09.503Z,15.80
2019-03-29T22:32:38.070Z,15.00
2019-03-29T22:35:07.530Z,16.82
2019-03-29T22:37:36.068Z,15.20
2019-03-29T22:40:07.782Z,14.63
2019-03-29T22:42:36.237Z,14.90
2019-03-29T22:45:07.837Z,16.60
2019-03-29T22:47:36.642Z,15.78
2019-03-29T22:50:10.473Z,16.52
2019-03-29T22:52:40.467Z,15.15
2019-03-29T22:55:09.570Z,14.68
2019-03-29T22:57:38.175Z,14.33
2019-03-29T23:00:19.150Z,16.05
2019-03-29T23:02:48.193Z,16.25
2019-03-29T23:05:16.823Z,17.10
2019-03-29T23:07:45.619Z,16.27
2019-03-29T23:10:14.376Z,16.85
2019-03-29T23:12:43.154Z,16.90
2019-03-29T23:15:12.253Z,15.13
2019-03-29T23:17:40.977Z,16.60
2019-03-29T23:20:09.829Z,14.87
2019-03-29T23:22:38.582Z,15.60
2019-03-29T23:25:07.602Z,14.58
2019-03-29T23:27:37.654Z,15.60
2019-03-29T23:30:08.087Z,15.80
2019-03-29T23:32:36.970Z,14.55
2019-03-29T23:35:09.481Z,15.43
2019-03-29T23:37:38.211Z,16.48
2019-03-29T23:40:08.034Z,15.65
2019-03-29T23:42:36.558Z,16.42
2019-03-29T23:45:08.185Z,15.93
2019-03-29T23:47:36.665Z,16.30
2019-03-29T23:50:06.910Z,15.08
2019-03-29T23:52:35.470Z,17.45
2019-03-29T23:55:05.411Z,15.53
2019-03-29T23:57:33.866Z,16.15
